Terminal Aerodrome Forecast
Issued by NWS Memphis, TN

Home | Current Version | Previous Version | Text Only | Print | Product List | Glossary On
Versions: 1 2 3 4 5 6 7 8 9 10 11 12 13 14 15 16 17 18 19 20 21 22 23 24 25
000
FTUS44 KMEG 261127
TAFMEM
TAF
KMEM 261127Z 2612/2712 13005KT P6SM SKC
     FM261400 14007KT P6SM SCT250
     FM270300 13005KT P6SM OVC050
     FM270700 13007KT P6SM -RA OVC015
      TEMPO 2708/2712 4SM -RA OVC007=

USA.gov is the U.S. government's official web portal to all federal, state and local government web resources and services.